Time;durP1;ratioP1;P1;durP2;ratioP2;P2;SDS_P1;SDS_P2;PMS_P1;PMS_P2;Temp;Humidity;BMP_temperature;BMP_pressure;BME280_temperature;BME280_humidity;BME280_pressure;Samples;Min_cycle;Max_cycle;Signal;HPM_P1;HPM_P2
2023/06/08 00:01:52;;;;;;;5.60;2.50;;;16.10;67.30;;;;;;4902721;29;20126;-81
2023/06/08 00:04:22;;;;;;;5.68;2.35;;;16.10;67.40;;;;;;4902559;29;20047;-81
2023/06/08 00:06:52;;;;;;;5.53;2.47;;;16.10;67.60;;;;;;4893437;29;20072;-82
2023/06/08 00:09:20;;;;;;;5.90;2.22;;;16.00;67.80;;;;;;4898722;29;20139;-82
2023/06/08 00:11:48;;;;;;;5.60;2.70;;;16.00;67.90;;;;;;4899135;29;20051;-82
2023/06/08 00:14:17;;;;;;;5.88;2.47;;;16.00;68.10;;;;;;4901425;29;20406;-82
2023/06/08 00:16:44;;;;;;;5.72;2.70;;;16.00;68.00;;;;;;4895750;29;20072;-82
2023/06/08 00:19:11;;;;;;;6.25;2.60;;;16.00;68.10;;;;;;4896715;29;20568;-82
2023/06/08 00:21:38;;;;;;;6.63;2.97;;;15.90;68.20;;;;;;4896623;29;20191;-82
2023/06/08 00:24:05;;;;;;;5.38;2.53;;;15.90;68.30;;;;;;4909969;29;20044;-82
2023/06/08 00:26:33;;;;;;;5.88;2.25;;;15.90;68.50;;;;;;4897899;29;20505;-82
2023/06/08 00:29:00;;;;;;;7.15;2.55;;;15.80;68.50;;;;;;4902143;29;20044;-82
2023/06/08 00:31:28;;;;;;;4.57;2.35;;;15.80;68.50;;;;;;4895874;29;20059;-82
2023/06/08 00:33:55;;;;;;;6.32;2.88;;;15.70;68.70;;;;;;4904323;29;20052;-82
2023/06/08 00:36:22;;;;;;;7.72;2.50;;;15.70;68.90;;;;;;4905666;29;20039;-81
2023/06/08 00:38:49;;;;;;;5.95;2.55;;;15.60;69.10;;;;;;4905163;29;20044;-82
2023/06/08 00:41:16;;;;;;;5.78;2.20;;;15.50;69.20;;;;;;4895997;29;20484;-82
2023/06/08 00:43:45;;;;;;;8.68;3.20;;;15.50;69.30;;;;;;4892879;29;20468;-82
2023/06/08 00:46:14;;;;;;;5.30;2.22;;;15.40;69.40;;;;;;4913544;29;20117;-81
2023/06/08 00:48:42;;;;;;;5.57;2.85;;;15.40;69.60;;;;;;4920801;29;20066;-81
2023/06/08 00:51:11;;;;;;;5.55;2.42;;;15.30;69.70;;;;;;4899228;29;20135;-81
2023/06/08 00:53:39;;;;;;;4.82;2.10;;;15.30;69.80;;;;;;4908746;29;20051;-82
2023/06/08 00:56:07;;;;;;;6.22;2.38;;;15.30;69.90;;;;;;4905088;29;20051;-82
2023/06/08 00:58:37;;;;;;;5.72;2.58;;;15.30;69.90;;;;;;4923229;29;20056;-81
2023/06/08 01:01:11;;;;;;;6.78;2.55;;;15.20;70.00;;;;;;4938765;29;20039;-82
2023/06/08 01:03:38;;;;;;;10.20;2.20;;;15.10;70.20;;;;;;4922204;29;20063;-82
2023/06/08 01:06:08;;;;;;;6.88;2.35;;;15.10;70.50;;;;;;4926916;29;20098;-82
2023/06/08 01:08:42;;;;;;;5.85;2.42;;;15.00;70.50;;;;;;4914536;29;20501;-82
2023/06/08 01:11:27;;;;;;;5.88;2.33;;;15.00;70.70;;;;;;4953589;29;20444;-82
2023/06/08 01:14:13;;;;;;;7.82;2.95;;;15.00;70.80;;;;;;4952126;29;20056;-81
2023/06/08 01:16:49;;;;;;;4.80;2.42;;;14.90;71.00;;;;;;4951629;29;20069;-82
2023/06/08 01:19:38;;;;;;;5.15;2.70;;;14.80;71.00;;;;;;4939811;29;20043;-82
2023/06/08 01:22:35;;;;;;;7.53;2.33;;;14.80;71.10;;;;;;4914150;29;20047;-82
2023/06/08 01:25:08;;;;;;;6.22;2.80;;;14.80;71.20;;;;;;4889756;29;20054;-82
2023/06/08 01:27:37;;;;;;;4.95;2.38;;;14.70;71.30;;;;;;4948157;29;20039;-82
2023/06/08 01:30:06;;;;;;;5.13;2.30;;;14.70;71.30;;;;;;4922892;29;20057;-82
2023/06/08 01:32:36;;;;;;;7.22;2.65;;;14.70;71.40;;;;;;4932316;29;20052;-82
2023/06/08 01:35:03;;;;;;;6.28;2.65;;;14.70;71.60;;;;;;4918544;29;20039;-82
2023/06/08 01:37:37;;;;;;;6.78;2.28;;;14.70;71.60;;;;;;4915155;29;20047;-81
2023/06/08 01:40:12;;;;;;;5.80;2.65;;;14.70;71.70;;;;;;4929089;29;20147;-80
2023/06/08 01:42:42;;;;;;;6.07;2.78;;;14.70;71.90;;;;;;4923811;29;20050;-81
2023/06/08 01:45:20;;;;;;;7.75;3.35;;;14.60;71.90;;;;;;4934560;29;20124;-81
2023/06/08 01:48:14;;;;;;;4.22;2.75;;;14.60;72.00;;;;;;4942862;29;20061;-81
2023/06/08 01:50:43;;;;;;;5.78;2.42;;;14.60;72.00;;;;;;4933830;29;20040;-81
2023/06/08 01:53:11;;;;;;;7.97;2.78;;;14.60;72.10;;;;;;4913674;29;20496;-81
2023/06/08 01:55:41;;;;;;;6.57;3.20;;;14.50;72.10;;;;;;4937415;29;20522;-82
2023/06/08 01:58:08;;;;;;;6.05;2.72;;;14.50;72.20;;;;;;4915764;29;20114;-82
2023/06/08 02:00:35;;;;;;;7.28;2.90;;;14.50;72.40;;;;;;4917921;29;20143;-82
2023/06/08 02:03:02;;;;;;;7.00;2.83;;;14.50;72.40;;;;;;4923231;29;20216;-82
2023/06/08 02:05:29;;;;;;;6.80;2.72;;;14.50;72.30;;;;;;4923018;29;20487;-82
2023/06/08 02:07:59;;;;;;;8.55;3.10;;;14.60;72.50;;;;;;4923886;29;20054;-81
2023/06/08 02:10:28;;;;;;;6.57;2.75;;;14.60;72.60;;;;;;4912370;29;20393;-82
2023/06/08 02:12:56;;;;;;;6.72;2.83;;;14.60;72.60;;;;;;4937796;29;20408;-82
2023/06/08 02:15:23;;;;;;;5.28;2.80;;;14.60;72.60;;;;;;4898318;29;20134;-82
2023/06/08 02:17:51;;;;;;;7.60;2.88;;;14.60;72.60;;;;;;4922263;29;20492;-83
2023/06/08 02:20:20;;;;;;;7.28;2.67;;;14.50;72.50;;;;;;4923389;29;20063;-82
2023/06/08 02:22:47;;;;;;;8.48;3.25;;;14.50;72.70;;;;;;4937922;29;20057;-82
2023/06/08 02:25:15;;;;;;;6.03;2.83;;;14.50;72.80;;;;;;4915065;29;20048;-82
2023/06/08 02:27:43;;;;;;;5.32;3.03;;;14.40;73.00;;;;;;4925584;29;20051;-82
2023/06/08 02:30:13;;;;;;;6.65;3.17;;;14.40;73.20;;;;;;4915712;29;20051;-82
2023/06/08 02:32:45;;;;;;;6.00;3.53;;;14.40;73.30;;;;;;4938452;29;20051;-82
2023/06/08 02:35:13;;;;;;;7.22;3.65;;;14.30;73.30;;;;;;4920782;29;20044;-82
2023/06/08 02:37:43;;;;;;;5.80;2.97;;;14.30;73.30;;;;;;4905064;29;20131;-82
2023/06/08 02:40:12;;;;;;;5.40;2.97;;;14.30;73.30;;;;;;4920867;29;20050;-82
2023/06/08 02:42:41;;;;;;;9.27;3.88;;;14.30;73.30;;;;;;4926171;29;20063;-82
2023/06/08 02:45:10;;;;;;;6.82;3.00;;;14.30;73.30;;;;;;4954121;29;20069;-82
2023/06/08 02:47:39;;;;;;;6.47;2.72;;;14.30;73.30;;;;;;4922689;29;20062;-82
2023/06/08 02:50:06;;;;;;;7.85;2.72;;;14.30;73.30;;;;;;4920442;29;20416;-82
2023/06/08 02:52:34;;;;;;;5.65;2.70;;;14.30;73.40;;;;;;4917555;29;20111;-82
2023/06/08 02:55:01;;;;;;;6.00;2.95;;;14.30;73.40;;;;;;4922484;29;20046;-82
2023/06/08 02:57:29;;;;;;;6.72;3.28;;;14.20;73.40;;;;;;4907169;29;20052;-82
2023/06/08 03:00:00;;;;;;;8.27;3.15;;;14.20;73.50;;;;;;4910188;29;20048;-82
2023/06/08 03:02:38;;;;;;;7.03;2.35;;;14.20;73.50;;;;;;4901209;29;20563;-82
2023/06/08 03:05:06;;;;;;;6.22;3.53;;;14.20;73.70;;;;;;4903525;29;20127;-82
2023/06/08 03:07:36;;;;;;;8.43;3.80;;;14.10;73.70;;;;;;4903300;29;20508;-82
2023/06/08 03:10:05;;;;;;;9.15;3.30;;;14.10;74.00;;;;;;4910691;29;20058;-82
2023/06/08 03:12:32;;;;;;;6.80;3.88;;;14.00;74.00;;;;;;4913910;29;20052;-82
2023/06/08 03:15:01;;;;;;;5.93;3.25;;;14.00;74.20;;;;;;4911666;29;20496;-82
2023/06/08 03:17:29;;;;;;;6.57;3.50;;;13.90;74.20;;;;;;4896133;29;20040;-82
2023/06/08 03:19:59;;;;;;;5.72;3.17;;;13.90;74.30;;;;;;4892337;29;20044;-82
2023/06/08 03:22:30;;;;;;;6.93;3.30;;;13.80;74.40;;;;;;4893615;29;20555;-83
2023/06/08 03:25:03;;;;;;;4.85;3.22;;;13.80;74.50;;;;;;4903701;29;20522;-82
2023/06/08 03:27:32;;;;;;;7.60;4.00;;;13.70;74.60;;;;;;4888253;29;20415;-83
2023/06/08 03:30:03;;;;;;;5.88;3.45;;;13.70;74.80;;;;;;4906049;29;20404;-82
2023/06/08 03:32:38;;;;;;;4.97;2.72;;;13.60;74.90;;;;;;4900612;29;20412;-82
2023/06/08 03:35:06;;;;;;;6.80;3.67;;;13.60;75.00;;;;;;4893592;29;20048;-82
2023/06/08 03:37:34;;;;;;;8.52;4.30;;;13.50;75.10;;;;;;4892175;29;20048;-82
2023/06/08 03:40:01;;;;;;;7.90;3.53;;;13.50;75.40;;;;;;4899314;29;20103;-82
2023/06/08 03:42:30;;;;;;;6.40;3.92;;;13.40;75.50;;;;;;4889740;29;20527;-82
2023/06/08 03:44:57;;;;;;;6.65;3.53;;;13.40;75.70;;;;;;4902810;29;20178;-82
2023/06/08 03:47:25;;;;;;;5.47;3.88;;;13.40;75.70;;;;;;4913194;29;20052;-82
2023/06/08 03:49:54;;;;;;;5.53;3.53;;;13.40;75.80;;;;;;4910138;29;20461;-82
2023/06/08 03:52:21;;;;;;;8.98;4.07;;;13.30;75.70;;;;;;4889452;29;20086;-82
2023/06/08 03:54:49;;;;;;;7.53;3.80;;;13.30;75.80;;;;;;4886810;29;20051;-82
2023/06/08 03:57:20;;;;;;;8.10;4.05;;;13.30;76.00;;;;;;4895639;29;20056;-82
2023/06/08 03:59:49;;;;;;;7.68;3.92;;;13.30;76.00;;;;;;4917344;29;20051;-82
2023/06/08 04:02:18;;;;;;;7.93;3.58;;;13.30;75.90;;;;;;4886810;29;20054;-82
2023/06/08 04:04:47;;;;;;;7.95;4.25;;;13.40;75.90;;;;;;4907743;29;20063;-82
2023/06/08 04:07:16;;;;;;;6.80;3.70;;;13.40;75.70;;;;;;4886513;29;20052;-82
2023/06/08 04:09:44;;;;;;;5.00;3.03;;;13.50;76.10;;;;;;4900206;29;20051;-82
2023/06/08 04:12:11;;;;;;;6.80;4.28;;;13.60;75.40;;;;;;4893445;29;20062;-81
2023/06/08 04:14:38;;;;;;;10.90;4.78;;;13.50;75.40;;;;;;4891594;29;20134;-82
2023/06/08 04:17:05;;;;;;;7.45;4.32;;;13.50;75.60;;;;;;4885474;29;20176;-82
2023/06/08 04:19:32;;;;;;;7.32;4.07;;;13.50;75.70;;;;;;4898979;29;20050;-82
2023/06/08 04:22:04;;;;;;;9.20;3.90;;;13.50;75.80;;;;;;4899203;29;20044;-82
2023/06/08 04:24:35;;;;;;;8.15;4.43;;;13.40;75.90;;;;;;4889892;29;20096;-82
2023/06/08 04:27:03;;;;;;;8.98;3.90;;;13.40;75.90;;;;;;4917893;29;20086;-82
2023/06/08 04:29:31;;;;;;;7.85;3.50;;;13.50;75.80;;;;;;4895956;29;20043;-82
2023/06/08 04:31:59;;;;;;;6.65;4.40;;;13.50;75.70;;;;;;4905376;29;20428;-81
2023/06/08 04:34:27;;;;;;;5.47;3.25;;;13.60;75.50;;;;;;4886650;29;20130;-81
2023/06/08 04:36:54;;;;;;;5.65;3.60;;;13.70;75.40;;;;;;4898712;29;20041;-81
2023/06/08 04:39:22;;;;;;;7.15;3.72;;;13.70;75.30;;;;;;4902107;29;20078;-81
2023/06/08 04:41:49;;;;;;;9.07;4.68;;;13.70;75.30;;;;;;4901926;29;20508;-81
2023/06/08 04:44:20;;;;;;;7.45;4.28;;;13.80;75.40;;;;;;4896178;29;20052;-82
2023/06/08 04:46:50;;;;;;;6.40;4.03;;;13.70;75.40;;;;;;4917006;29;20381;-81
2023/06/08 04:49:18;;;;;;;8.38;4.82;;;13.70;75.40;;;;;;4896565;29;20051;-81
2023/06/08 04:51:46;;;;;;;9.73;4.25;;;13.70;75.50;;;;;;4902119;29;20052;-83
2023/06/08 04:54:13;;;;;;;7.32;3.80;;;13.70;75.60;;;;;;4898208;29;20504;-82
2023/06/08 04:56:41;;;;;;;7.50;3.97;;;13.70;75.60;;;;;;4892721;29;20051;-83
2023/06/08 04:59:09;;;;;;;6.47;4.20;;;13.80;75.50;;;;;;4897476;29;20048;-82
2023/06/08 05:01:37;;;;;;;7.22;3.40;;;13.80;75.40;;;;;;4899828;29;20147;-83
2023/06/08 05:04:07;;;;;;;7.28;3.83;;;13.90;75.30;;;;;;4915184;29;20052;-82
2023/06/08 05:06:35;;;;;;;8.45;4.07;;;13.90;75.10;;;;;;4895303;29;20496;-82
2023/06/08 05:09:03;;;;;;;8.32;3.92;;;14.00;75.10;;;;;;4911549;29;20055;-82
2023/06/08 05:11:30;;;;;;;5.88;3.83;;;14.00;75.00;;;;;;4895932;29;20051;-82
2023/06/08 05:13:57;;;;;;;6.35;3.72;;;14.10;74.90;;;;;;4901625;29;20040;-83
2023/06/08 05:16:24;;;;;;;10.02;4.10;;;14.20;74.80;;;;;;4893260;29;20047;-83
2023/06/08 05:18:52;;;;;;;7.60;3.85;;;14.20;74.50;;;;;;4892161;29;20048;-83
2023/06/08 05:21:20;;;;;;;8.32;4.25;;;14.30;74.50;;;;;;4901727;29;20096;-82
2023/06/08 05:23:47;;;;;;;7.70;4.00;;;14.30;74.40;;;;;;4888929;29;20040;-82
2023/06/08 05:26:14;;;;;;;9.13;4.07;;;14.40;74.40;;;;;;4904887;29;20043;-83
2023/06/08 05:28:41;;;;;;;6.00;4.03;;;14.40;74.20;;;;;;4901628;29;20099;-82
2023/06/08 05:31:08;;;;;;;7.97;4.35;;;14.50;74.10;;;;;;4891804;29;20075;-82
2023/06/08 05:33:35;;;;;;;8.57;4.72;;;14.60;74.00;;;;;;4892674;29;20464;-82
2023/06/08 05:36:04;;;;;;;7.50;4.03;;;14.60;73.90;;;;;;4889547;29;20150;-82
2023/06/08 05:38:32;;;;;;;9.02;4.35;;;14.70;73.70;;;;;;4907468;29;20126;-82
2023/06/08 05:40:59;;;;;;;4.93;3.65;;;14.80;73.60;;;;;;4898312;29;20080;-82
2023/06/08 05:43:27;;;;;;;6.65;4.07;;;14.80;74.10;;;;;;4892265;29;20131;-82
2023/06/08 05:45:54;;;;;;;8.07;3.63;;;14.90;73.90;;;;;;4898727;29;20059;-82
2023/06/08 05:48:21;;;;;;;6.95;4.40;;;15.00;73.20;;;;;;4904350;29;20074;-82
2023/06/08 05:50:48;;;;;;;9.25;3.90;;;15.10;73.00;;;;;;4888457;29;20059;-82
2023/06/08 05:53:15;;;;;;;8.50;4.50;;;15.20;72.90;;;;;;4895476;29;20487;-82
2023/06/08 05:55:44;;;;;;;5.68;3.95;;;15.30;72.70;;;;;;4918011;29;20545;-82
2023/06/08 05:58:12;;;;;;;7.50;4.10;;;15.40;72.50;;;;;;4910289;29;20047;-82
2023/06/08 06:00:39;;;;;;;5.93;3.92;;;15.40;72.40;;;;;;4923265;29;20050;-82
2023/06/08 06:03:06;;;;;;;6.90;3.45;;;15.40;72.50;;;;;;4938338;29;20043;-82
2023/06/08 06:05:33;;;;;;;6.65;4.13;;;15.40;72.40;;;;;;4922763;29;20047;-82
2023/06/08 06:08:00;;;;;;;4.72;2.88;;;15.60;72.20;;;;;;4920054;29;20139;-82
2023/06/08 06:10:27;;;;;;;7.70;3.60;;;15.70;71.80;;;;;;4922819;29;20051;-82
2023/06/08 06:12:57;;;;;;;6.82;3.70;;;15.80;71.60;;;;;;4907303;29;20107;-82
2023/06/08 06:15:25;;;;;;;6.10;3.17;;;16.00;71.40;;;;;;4923384;29;20051;-82
2023/06/08 06:17:52;;;;;;;6.68;3.13;;;16.10;71.20;;;;;;4920435;29;20052;-82
2023/06/08 06:20:19;;;;;;;5.10;3.00;;;16.20;71.60;;;;;;4904350;29;20047;-82
2023/06/08 06:22:46;;;;;;;6.30;3.22;;;16.30;70.70;;;;;;4905537;29;20048;-82
2023/06/08 06:25:18;;;;;;;;;;;16.40;70.40;;;;;;4920832;29;20089;-82
2023/06/08 06:27:45;;;;;;;7.32;3.70;;;16.50;70.40;;;;;;4922820;29;20025;-82
2023/06/08 06:30:15;;;;;;;6.47;3.83;;;16.50;70.10;;;;;;4908052;29;20130;-82
2023/06/08 06:32:42;;;;;;;9.55;4.38;;;16.60;69.90;;;;;;4932034;29;20082;-82
2023/06/08 06:35:10;;;;;;;6.85;3.42;;;16.60;69.90;;;;;;4909578;29;20400;-82
2023/06/08 06:37:38;;;;;;;7.18;3.58;;;16.70;69.80;;;;;;4927668;29;20070;-82
2023/06/08 06:40:06;;;;;;;5.60;3.45;;;16.60;69.80;;;;;;4932497;29;20098;-82
2023/06/08 06:42:37;;;;;;;7.82;3.67;;;16.70;69.80;;;;;;4916449;29;20071;-82
2023/06/08 06:45:16;;;;;;;8.13;3.80;;;16.70;69.60;;;;;;4917127;29;20571;-82
2023/06/08 06:47:43;;;;;;;5.55;3.28;;;16.70;69.60;;;;;;4938118;29;20495;-82
2023/06/08 06:50:10;;;;;;;7.15;3.55;;;16.60;69.70;;;;;;4919302;29;20047;-82
2023/06/08 06:52:37;;;;;;;5.63;3.45;;;16.60;70.00;;;;;;4930037;29;20047;-82
2023/06/08 06:55:05;;;;;;;5.80;3.50;;;16.50;70.00;;;;;;4919662;29;20514;-82
2023/06/08 06:57:32;;;;;;;5.13;3.42;;;16.60;70.10;;;;;;4921188;29;20475;-82
2023/06/08 06:59:59;;;;;;;7.90;4.47;;;16.50;70.00;;;;;;4945370;29;20070;-82
2023/06/08 07:02:29;;;;;;;7.05;4.07;;;16.50;70.10;;;;;;4920785;29;20043;-82
2023/06/08 07:04:58;;;;;;;6.75;3.80;;;16.40;70.20;;;;;;4913613;29;20062;-86
2023/06/08 07:07:26;;;;;;;8.75;3.80;;;16.40;70.20;;;;;;4917160;29;20047;-83
2023/06/08 07:09:53;;;;;;;6.88;2.90;;;16.50;70.00;;;;;;4925732;29;20066;-82
2023/06/08 07:12:20;;;;;;;5.90;3.03;;;16.60;69.70;;;;;;4920113;29;20154;-84
2023/06/08 07:14:47;;;;;;;6.65;3.00;;;16.80;69.40;;;;;;4906504;29;20056;-83
2023/06/08 07:17:14;;;;;;;5.40;3.05;;;16.90;69.10;;;;;;4914374;29;20400;-82
2023/06/08 07:19:44;;;;;;;6.22;3.35;;;17.00;68.80;;;;;;4913076;29;20047;-81
2023/06/08 07:22:12;;;;;;;6.65;3.58;;;17.10;68.80;;;;;;4922099;29;20071;-82
2023/06/08 07:24:58;;;;;;;5.35;2.90;;;17.30;68.50;;;;;;4926413;29;20098;-82
2023/06/08 07:27:45;;;;;;;5.97;3.67;;;17.50;68.20;;;;;;4924070;29;20052;-84
2023/06/08 07:30:13;;;;;;;8.77;3.53;;;17.60;67.90;;;;;;4918982;29;20054;-82
2023/06/08 07:32:40;;;;;;;8.38;3.65;;;17.70;67.80;;;;;;4915042;29;20055;-84
2023/06/08 07:35:07;;;;;;;7.45;4.50;;;17.70;67.70;;;;;;4908541;29;20043;-84
2023/06/08 07:37:36;;;;;;;5.07;3.53;;;17.60;67.70;;;;;;4917088;29;20124;-82
2023/06/08 07:40:11;;;;;;;6.97;3.58;;;17.70;67.80;;;;;;4912559;29;20047;-82
2023/06/08 07:42:38;;;;;;;6.45;3.17;;;17.70;67.60;;;;;;4918048;29;20128;-82
2023/06/08 07:45:05;;;;;;;6.20;3.00;;;17.80;67.60;;;;;;4930902;29;20540;-82
2023/06/08 07:47:34;;;;;;;5.55;2.80;;;17.80;67.40;;;;;;4921083;29;20057;-83
2023/06/08 07:50:04;;;;;;;5.75;2.67;;;17.90;67.30;;;;;;4915476;29;20058;-81
2023/06/08 07:52:32;;;;;;;7.05;3.47;;;18.00;67.10;;;;;;4918240;29;20051;-83
2023/06/08 07:54:59;;;;;;;5.30;2.67;;;18.10;66.90;;;;;;4921053;29;20047;-82
2023/06/08 07:57:27;;;;;;;6.07;3.10;;;18.20;66.60;;;;;;4949588;29;20086;-82
2023/06/08 07:59:54;;;;;;;6.53;2.90;;;18.20;66.50;;;;;;4921531;29;20146;-83
2023/06/08 08:02:21;;;;;;;3.88;2.72;;;18.40;66.40;;;;;;4921160;29;20134;-82
2023/06/08 08:04:49;;;;;;;5.95;3.17;;;18.50;66.20;;;;;;4930111;29;20083;-81
2023/06/08 08:07:16;;;;;;;7.07;3.15;;;18.50;66.00;;;;;;4915558;29;20055;-81
2023/06/08 08:09:43;;;;;;;5.90;2.75;;;18.60;65.90;;;;;;4921813;29;20451;-80
2023/06/08 08:12:10;;;;;;;5.00;2.88;;;18.60;65.90;;;;;;4921447;29;20047;-81
2023/06/08 08:14:37;;;;;;;6.10;2.95;;;18.70;65.80;;;;;;4921194;29;20069;-82
2023/06/08 08:17:05;;;;;;;6.20;2.95;;;18.70;65.70;;;;;;4917171;29;20054;-82
2023/06/08 08:19:32;;;;;;;4.88;2.60;;;18.60;65.70;;;;;;4917641;29;20044;-82
2023/06/08 08:21:59;;;;;;;7.43;2.75;;;18.70;65.80;;;;;;4928928;29;20048;-82
2023/06/08 08:24:26;;;;;;;4.40;2.45;;;18.70;65.60;;;;;;4919249;29;20058;-82
2023/06/08 08:26:56;;;;;;;3.55;2.17;;;18.80;65.40;;;;;;4921149;29;20066;-81
2023/06/08 08:29:23;;;;;;;5.88;2.78;;;18.90;65.20;;;;;;4936928;29;20484;-80
2023/06/08 08:31:53;;;;;;;4.65;3.00;;;18.90;65.10;;;;;;4915591;29;20457;-79
2023/06/08 08:34:20;;;;;;;7.82;3.67;;;18.90;65.00;;;;;;4914130;29;20051;-79
2023/06/08 08:36:48;;;;;;;4.93;2.78;;;18.90;64.90;;;;;;4920333;29;20058;-82
2023/06/08 08:39:15;;;;;;;4.88;2.63;;;18.80;65.10;;;;;;4909536;29;20372;-82
2023/06/08 08:41:44;;;;;;;4.05;2.20;;;18.90;65.10;;;;;;4921033;29;20066;-80
2023/06/08 08:44:16;;;;;;;5.07;2.72;;;19.00;65.00;;;;;;4939302;29;20048;-80
2023/06/08 08:46:45;;;;;;;4.93;2.92;;;19.00;64.80;;;;;;4918048;29;20052;-77
2023/06/08 08:49:16;;;;;;;6.00;2.40;;;19.00;64.80;;;;;;4921057;29;20407;-78
2023/06/08 08:51:52;;;;;;;5.10;2.65;;;19.00;64.80;;;;;;4921204;29;20043;-78
2023/06/08 08:54:31;;;;;;;4.57;2.40;;;19.20;64.60;;;;;;4951933;28;20384;-78
2023/06/08 08:56:59;;;;;;;6.05;3.20;;;19.20;64.50;;;;;;4916094;29;20103;-78
2023/06/08 08:59:28;;;;;;;5.88;3.42;;;19.10;64.40;;;;;;4919536;29;20050;-78
2023/06/08 09:01:56;;;;;;;6.47;2.55;;;19.10;64.50;;;;;;4916683;29;20106;-81
2023/06/08 09:04:26;;;;;;;4.32;2.33;;;19.00;64.50;;;;;;4936830;29;20047;-80
2023/06/08 09:06:53;;;;;;;6.20;3.53;;;19.00;64.40;;;;;;4921120;29;20063;-81
2023/06/08 09:09:23;;;;;;;6.97;3.42;;;19.00;64.30;;;;;;4921691;29;20058;-80
2023/06/08 09:12:05;;;;;;;7.63;2.95;;;18.90;64.40;;;;;;4929953;29;20099;-81
2023/06/08 09:14:32;;;;;;;5.00;2.55;;;18.90;64.30;;;;;;4953515;29;20051;-80
2023/06/08 09:16:59;;;;;;;4.90;2.85;;;18.90;64.20;;;;;;4915369;29;20044;-80
2023/06/08 09:19:28;;;;;;;5.13;2.42;;;19.10;64.00;;;;;;4929271;29;20067;-81
2023/06/08 09:21:56;;;;;;;6.85;3.63;;;19.40;63.70;;;;;;4927214;29;20056;-82
2023/06/08 09:24:23;;;;;;;6.75;1.80;;;19.80;62.90;;;;;;4918498;29;20403;-83
2023/06/08 09:26:53;;;;;;;6.13;2.72;;;20.30;62.00;;;;;;4923054;29;20098;-80
2023/06/08 09:29:42;;;;;;;4.28;1.95;;;20.80;61.80;;;;;;4906205;29;20151;-80
2023/06/08 09:32:12;;;;;;;4.90;2.25;;;21.20;60.40;;;;;;4922813;29;20055;-80
2023/06/08 09:34:58;;;;;;;4.40;2.10;;;21.40;60.20;;;;;;4945646;29;20052;-81
2023/06/08 09:37:29;;;;;;;3.78;1.58;;;21.50;60.00;;;;;;4911719;29;20477;-80
2023/06/08 09:39:58;;;;;;;3.97;2.15;;;21.40;60.30;;;;;;4924315;29;20110;-80
2023/06/08 09:42:41;;;;;;;3.97;2.00;;;21.50;60.20;;;;;;4938514;29;20039;-80
2023/06/08 09:45:10;;;;;;;5.00;2.40;;;21.40;60.00;;;;;;4926552;29;20044;-80
2023/06/08 09:47:37;;;;;;;4.18;2.17;;;21.30;60.20;;;;;;4937399;29;20050;-86
2023/06/08 09:50:08;;;;;;;5.97;2.92;;;21.30;60.10;;;;;;4915479;29;20051;-82
2023/06/08 09:52:36;;;;;;;5.63;2.90;;;21.40;59.70;;;;;;4932534;29;20054;-81
2023/06/08 09:55:05;;;;;;;5.35;2.25;;;21.40;59.60;;;;;;4916093;29;20052;-81
2023/06/08 09:57:36;;;;;;;3.70;2.38;;;21.50;59.60;;;;;;4933297;29;20464;-82
2023/06/08 10:00:17;;;;;;;3.33;1.63;;;21.60;59.40;;;;;;4930007;29;20043;-82
2023/06/08 10:03:09;;;;;;;3.80;2.00;;;21.70;59.30;;;;;;4935228;29;20460;-81
2023/06/08 10:05:43;;;;;;;4.45;1.70;;;21.80;59.00;;;;;;4919557;29;20292;-81
2023/06/08 10:08:13;;;;;;;2.78;1.60;;;22.10;58.90;;;;;;4932483;29;20119;-82
2023/06/08 10:10:41;;;;;;;3.95;1.85;;;22.30;58.50;;;;;;4931714;29;20423;-82
2023/06/08 10:13:10;;;;;;;4.20;2.13;;;22.50;58.10;;;;;;4921998;29;20123;-87
2023/06/08 10:15:38;;;;;;;3.58;1.80;;;22.60;57.90;;;;;;4931624;29;20052;-87
2023/06/08 10:18:06;;;;;;;3.85;2.10;;;22.70;57.80;;;;;;4914873;29;20067;-88
2023/06/08 10:20:34;;;;;;;3.60;1.88;;;22.80;57.70;;;;;;4911396;29;20495;-87
2023/06/08 10:23:02;;;;;;;4.35;1.75;;;23.00;57.50;;;;;;4950126;29;20046;-87
2023/06/08 10:25:30;;;;;;;4.03;1.83;;;23.20;57.20;;;;;;4914109;29;20055;-86
2023/06/08 10:28:06;;;;;;;3.45;1.60;;;23.40;57.00;;;;;;4917948;29;20144;-87
2023/06/08 10:30:41;;;;;;;3.40;1.90;;;23.40;57.00;;;;;;4930024;29;20055;-87
2023/06/08 10:33:11;;;;;;;4.07;1.40;;;23.30;57.00;;;;;;4921921;29;20047;-87
2023/06/08 10:35:42;;;;;;;3.42;1.67;;;23.30;57.00;;;;;;4954823;29;20051;-87
2023/06/08 10:38:12;;;;;;;3.33;1.50;;;23.40;57.00;;;;;;4923988;29;20047;-85
2023/06/08 10:40:50;;;;;;;3.53;1.98;;;23.50;56.80;;;;;;4933628;29;20068;-85
2023/06/08 10:43:26;;;;;;;3.05;1.52;;;23.70;56.30;;;;;;4933668;29;20044;-82
2023/06/08 10:46:13;;;;;;;4.43;2.03;;;23.90;56.10;;;;;;4930143;29;20463;-82
2023/06/08 10:48:41;;;;;;;4.35;1.90;;;24.10;55.80;;;;;;4922672;29;20161;-82
2023/06/08 10:51:21;;;;;;;2.83;1.40;;;24.20;55.50;;;;;;4922944;29;20514;-84
2023/06/08 10:53:57;;;;;;;2.25;1.15;;;24.20;55.30;;;;;;4920535;29;20054;-83
2023/06/08 10:56:26;;;;;;;4.20;1.65;;;24.30;55.30;;;;;;4920459;29;20050;-87
2023/06/08 10:58:55;;;;;;;2.92;2.13;;;24.30;55.10;;;;;;4938946;29;20102;-86
2023/06/08 11:01:30;;;;;;;3.00;1.90;;;24.20;55.10;;;;;;4954592;29;20483;-84
2023/06/08 11:03:59;;;;;;;4.40;1.40;;;24.30;55.10;;;;;;4938747;29;20130;-91
2023/06/08 11:06:33;;;;;;;3.83;1.73;;;24.40;55.00;;;;;;4923876;29;20141;-91
2023/06/08 11:09:03;;;;;;;;;;;24.50;54.80;;;;;;4939284;29;20138;-89
2023/06/08 11:11:33;;;;;;;2.17;1.17;;;24.60;54.70;;;;;;4938668;29;19984;-86
2023/06/08 11:14:01;;;;;;;2.80;1.27;;;24.70;54.60;;;;;;4922714;29;20515;-90
2023/06/08 11:16:30;;;;;;;5.65;1.15;;;24.70;54.30;;;;;;4937915;29;20047;-90
2023/06/08 11:18:57;;;;;;;4.80;2.08;;;24.80;54.10;;;;;;4922384;29;20123;-90
2023/06/08 11:21:26;;;;;;;4.47;1.85;;;24.80;53.90;;;;;;4919469;29;20055;-90
2023/06/08 11:23:53;;;;;;;5.07;1.75;;;24.80;53.90;;;;;;4940441;29;20492;-89
2023/06/08 11:26:24;;;;;;;3.17;1.40;;;24.90;53.70;;;;;;4922229;29;20051;-88
2023/06/08 11:28:51;;;;;;;3.33;1.17;;;24.90;53.40;;;;;;4919443;29;20047;-88
2023/06/08 11:31:18;;;;;;;3.00;1.67;;;25.00;53.40;;;;;;4921074;29;20054;-88
2023/06/08 11:33:48;;;;;;;2.75;1.10;;;25.00;53.10;;;;;;4895445;29;20051;-91
2023/06/08 11:36:17;;;;;;;3.17;1.52;;;25.10;53.10;;;;;;4921949;29;20043;-86
2023/06/08 11:38:44;;;;;;;4.80;1.58;;;25.20;52.90;;;;;;4906563;29;20071;-87
2023/06/08 11:41:12;;;;;;;3.53;1.55;;;25.30;52.80;;;;;;4921643;29;20051;-87
2023/06/08 11:43:42;;;;;;;3.25;1.65;;;25.40;52.40;;;;;;4922128;29;20050;-92
2023/06/08 11:46:10;;;;;;;2.88;1.60;;;25.50;52.30;;;;;;4919092;29;20051;-92
2023/06/08 11:48:38;;;;;;;3.53;1.92;;;25.70;52.10;;;;;;4922714;29;20101;-91
2023/06/08 11:51:07;;;;;;;2.83;1.33;;;25.80;51.70;;;;;;4948733;29;20492;-87
2023/06/08 11:53:35;;;;;;;3.53;1.67;;;26.00;51.60;;;;;;4933729;29;20056;-90
2023/06/08 11:56:03;;;;;;;3.47;1.60;;;26.30;51.40;;;;;;4916323;29;20044;-89
2023/06/08 11:58:36;;;;;;;2.78;1.48;;;26.60;51.10;;;;;;4914067;29;20508;-88
2023/06/08 12:01:13;;;;;;;2.60;1.60;;;26.90;50.60;;;;;;4928930;29;20066;-90
2023/06/08 12:03:49;;;;;;;5.03;1.80;;;27.10;50.30;;;;;;4928266;29;20074;-92
2023/06/08 12:06:24;;;;;;;2.90;1.60;;;27.30;50.10;;;;;;4937834;29;20054;-88
2023/06/08 12:08:56;;;;;;;3.35;1.35;;;27.50;49.90;;;;;;4926030;29;20048;-89
2023/06/08 12:11:24;;;;;;;3.08;1.42;;;27.70;49.60;;;;;;4932960;29;20051;-90
2023/06/08 12:13:55;;;;;;;;;;;27.90;49.30;;;;;;4928318;29;20146;-88
2023/06/08 12:16:22;;;;;;;1.70;1.10;;;28.20;49.20;;;;;;4935895;29;19922;-88
2023/06/08 12:18:50;;;;;;;2.90;1.48;;;28.50;49.00;;;;;;4921590;29;20098;-86
2023/06/08 12:21:19;;;;;;;3.67;1.40;;;28.80;48.50;;;;;;4919058;29;20040;-88
2023/06/08 12:23:46;;;;;;;2.38;1.50;;;29.10;48.20;;;;;;4903940;29;20055;-88
2023/06/08 12:26:14;;;;;;;3.50;1.60;;;29.30;47.80;;;;;;4931560;29;20043;-86
2023/06/08 12:28:42;;;;;;;3.63;1.30;;;29.60;47.40;;;;;;4911435;29;20110;-86
2023/06/08 12:31:09;;;;;;;3.28;1.65;;;29.70;47.00;;;;;;4919834;29;20049;-86
2023/06/08 12:33:37;;;;;;;3.85;1.90;;;29.80;46.80;;;;;;4919286;29;20048;-85
2023/06/08 12:36:04;;;;;;;2.28;1.30;;;29.70;46.50;;;;;;4902593;29;20047;-85
2023/06/08 12:38:31;;;;;;;3.13;1.40;;;29.90;46.70;;;;;;4937711;29;20052;-89
2023/06/08 12:40:59;;;;;;;2.65;1.48;;;30.30;46.30;;;;;;4940876;29;20047;-91
2023/06/08 12:43:26;;;;;;;2.70;1.08;;;30.50;46.00;;;;;;4925690;29;20079;-86
2023/06/08 12:45:53;;;;;;;2.33;1.33;;;30.90;45.80;;;;;;4924965;29;20047;-86
2023/06/08 12:48:23;;;;;;;2.15;1.00;;;31.30;45.40;;;;;;4957719;29;20110;-87
2023/06/08 12:50:51;;;;;;;3.10;1.65;;;31.60;44.90;;;;;;4936745;29;20082;-83
2023/06/08 12:53:18;;;;;;;3.97;1.27;;;31.80;44.30;;;;;;4938560;29;20058;-84
2023/06/08 12:55:45;;;;;;;2.15;1.10;;;31.90;44.30;;;;;;4921416;29;20052;-84
2023/06/08 12:58:12;;;;;;;2.00;1.02;;;32.00;44.30;;;;;;4924080;29;20066;-87
2023/06/08 13:00:39;;;;;;;2.08;1.08;;;32.30;44.10;;;;;;4911957;29;20044;-89